Anchorville, MI (48004)

2:04 AM EDT on March 28, 2017 (GMT -0400)
Dixie Hwy | | Change Station

Elev 587 ft 42.69 °N, 82.67 °W | Updated 33 seconds ago

Overcast
Overcast
41.4 °F
Feels Like 39 °F
N
4.0
Wind Variable Wind from NE

Today
High -- | Low -- °F
--% Chance of Precip.
Yesterday
High -- | Low -- °F
Precip. -- in
Pressure 29.93 in
Visibility 10.0 miles
Clouds Overcast 700 ft
Windchill 39 °F
Dew Point 40 °F
Humidity 95%
Rainfall 0.00 in
Snow Depth Not available.
7:19 AM 7:52 PM
New Moon, 0% visible
METAR KMTC 280558Z AUTO 04009KT 10SM OVC007 07/07 A2991 RMK AO2 SLP134 T00660066 10125 20066 50001
Pressure 29.93 in
Visibility 10.0 miles
Clouds Overcast 700 ft
Windchill 39 °F
Dew Point 40 °F
Humidity 95%
Rainfall 0.00 in
Snow Depth Not available.
7:19 AM 7:52 PM
New Moon, 0% visible
METAR KMTC 280558Z AUTO 04009KT 10SM OVC007 07/07 A2991 RMK AO2 SLP134 T00660066 10125 20066 50001

Get Severe Weather Alerts

Thanks for signing up!

Be on the lookout for a verification email in your inbox.

You'll start receiving the daily forecast at 8 AM.

×

10-Day Weather Forecast

Almanac

Astronomy

Mar. 28, 2017 Rise Set
Actual Time
Civil Twilight
Nautical Twilight
Astronomical Twilight
Moon
Length of Visible Light
Length of Day
Tomorrow will be .
, % of the Moon is Illuminated

Today's Extremes

State Highs State Lows

Community

WunderPhotos

Upload Photos

1,962,540 photos uploaded!

WunderBlog® & News

Nearby

Air Quality

  Air Quality AQ Index Pollutant
Not available.

Snow Depth

Station Depth Elevation

Earthquake Activity

City Distance Mag. Time & Date
Minimum magnitude displayed is 2.5.

Earthquake Activity

City Distance Mag. Time & Date
Minimum magnitude displayed is 2.5.

Coastal Water Temperatures

Place Temperature

Stations

Nearby Weather Stations

Station Location Temp. Windchill Dew Point Humidity Wind Precip. Elev Updated Type
                   

Watches & Warnings

There are currently no watches in effect.